Time;durP1;ratioP1;P1;durP2;ratioP2;P2;SDS_P1;SDS_P2;PMS_P1;PMS_P2;Temp;Humidity;BMP_temperature;BMP_pressure;BME280_temperature;BME280_humidity;BME280_pressure;Samples;Min_cycle;Max_cycle;Signal;HPM_P1;HPM_P2
2021/03/20 00:01:54;;;;;;;0.75;0.75;;;16.10;57.20;;;;;;4195647;28;20874;-44
2021/03/20 00:04:16;;;;;;;0.00;0.00;;;16.00;57.20;;;;;;4196103;28;20047;-43
2021/03/20 00:06:40;;;;;;;0.00;0.00;;;16.00;57.30;;;;;;4195791;28;20063;-42
2021/03/20 00:09:05;;;;;;;0.00;0.00;;;16.00;57.30;;;;;;4194017;28;20057;-42
2021/03/20 00:11:26;;;;;;;0.00;0.00;;;16.10;57.20;;;;;;4195549;28;20056;-42
2021/03/20 00:13:48;;;;;;;0.00;0.00;;;16.00;57.20;;;;;;4195977;28;20139;-43
2021/03/20 00:16:10;;;;;;;0.00;0.00;;;16.00;57.40;;;;;;4195778;28;20151;-43
2021/03/20 00:18:35;;;;;;;0.00;0.00;;;16.00;57.40;;;;;;4195918;28;20136;-43
2021/03/20 00:20:57;;;;;;;0.10;0.10;;;15.90;57.50;;;;;;4195573;28;20091;-43
2021/03/20 00:23:18;;;;;;;0.00;0.00;;;15.90;57.60;;;;;;4195755;28;20056;-46
2021/03/20 00:25:39;;;;;;;0.00;0.00;;;15.80;57.80;;;;;;4195440;28;20143;-43
2021/03/20 00:28:02;;;;;;;0.00;0.00;;;15.70;57.90;;;;;;4195772;28;20052;-43
2021/03/20 00:30:24;;;;;;;0.00;0.00;;;15.70;58.20;;;;;;4195606;28;20057;-49
2021/03/20 00:32:45;;;;;;;0.00;0.00;;;15.70;58.30;;;;;;4195729;28;20190;-46
2021/03/20 00:35:08;;;;;;;;;;;15.80;57.90;;;;;;4196187;28;20506;-45
2021/03/20 00:37:29;;;;;;;0.20;0.20;;;16.00;57.30;;;;;;4195633;28;19931;-43
2021/03/20 00:39:50;;;;;;;0.00;0.00;;;16.20;56.90;;;;;;4195274;28;20411;-44
2021/03/20 00:42:11;;;;;;;0.00;0.00;;;16.20;56.60;;;;;;4195204;28;20048;-43
2021/03/20 00:44:35;;;;;;;0.10;0.10;;;16.20;56.60;;;;;;4195652;28;20053;-43
2021/03/20 00:46:56;;;;;;;0.20;0.20;;;16.20;56.80;;;;;;4195572;28;20058;-43
2021/03/20 00:49:17;;;;;;;0.00;0.00;;;16.30;56.70;;;;;;4195643;28;20135;-43
2021/03/20 00:51:39;;;;;;;0.00;0.00;;;16.30;56.60;;;;;;4179221;28;20053;-43
2021/03/20 00:54:00;;;;;;;0.00;0.00;;;16.30;56.60;;;;;;4195157;28;20127;-44
2021/03/20 00:56:21;;;;;;;0.45;0.45;;;16.20;56.70;;;;;;4195303;28;20081;-43
2021/03/20 00:58:42;;;;;;;0.32;0.32;;;16.10;56.90;;;;;;4195569;28;20114;-43
2021/03/20 01:01:05;;;;;;;0.00;0.00;;;16.10;57.10;;;;;;4195274;28;20076;-42
2021/03/20 01:03:27;;;;;;;0.00;0.00;;;16.10;57.10;;;;;;4195451;28;20049;-43
2021/03/20 01:05:48;;;;;;;0.00;0.00;;;16.10;57.10;;;;;;4195583;28;20768;-44
2021/03/20 01:08:10;;;;;;;0.00;0.00;;;16.00;57.10;;;;;;4195318;28;20133;-43
2021/03/20 01:10:32;;;;;;;0.00;0.00;;;16.00;57.30;;;;;;4187924;28;20111;-43
2021/03/20 01:12:52;;;;;;;0.00;0.00;;;16.00;57.30;;;;;;4195362;28;20591;-44
2021/03/20 01:15:15;;;;;;;0.30;0.30;;;15.90;57.30;;;;;;4195665;28;20131;-44
2021/03/20 01:17:36;;;;;;;0.00;0.00;;;15.90;57.50;;;;;;4195358;28;20784;-43
2021/03/20 01:19:58;;;;;;;0.10;0.10;;;15.80;57.70;;;;;;4195062;28;20052;-47
2021/03/20 01:22:18;;;;;;;1.13;1.05;;;15.80;57.80;;;;;;4198426;28;20560;-47
2021/03/20 01:24:40;;;;;;;0.00;0.00;;;15.90;57.50;;;;;;4198314;28;20059;-45
2021/03/20 01:27:02;;;;;;;0.00;0.00;;;16.00;57.20;;;;;;4194662;28;20442;-43
2021/03/20 01:29:23;;;;;;;0.10;0.10;;;16.10;57.00;;;;;;4183846;28;20063;-43
2021/03/20 01:31:44;;;;;;;;;;;16.10;57.10;;;;;;4198759;28;20059;-43
2021/03/20 01:34:06;;;;;;;0.13;0.13;;;16.10;57.10;;;;;;4198399;28;20051;-42
2021/03/20 01:36:27;;;;;;;;;;;16.10;57.00;;;;;;4198660;28;20108;-42
2021/03/20 01:38:48;;;;;;;0.00;0.00;;;16.10;56.90;;;;;;4197996;28;19950;-44
2021/03/20 01:41:15;;;;;;;0.03;0.03;;;16.00;57.00;;;;;;4189305;28;20590;-43
2021/03/20 01:43:36;;;;;;;0.00;0.00;;;16.00;57.20;;;;;;4197872;28;20052;-43
2021/03/20 01:46:35;;;;;;;0.00;0.00;;;16.00;57.10;;;;;;4198243;28;20052;-43
2021/03/20 01:48:57;;;;;;;0.10;0.10;;;16.20;56.90;;;;;;4197744;28;20066;-42
2021/03/20 01:51:17;;;;;;;0.70;0.70;;;16.30;56.40;;;;;;4198023;28;20078;-42
2021/03/20 01:53:39;;;;;;;;;;;16.40;56.20;;;;;;4198429;28;20059;-43
2021/03/20 01:56:02;;;;;;;;;;;16.40;56.10;;;;;;4198291;28;19924;-42
2021/03/20 01:58:24;;;;;;;0.00;0.00;;;16.40;56.10;;;;;;4198116;28;20053;-42
2021/03/20 02:00:46;;;;;;;0.10;0.10;;;16.50;56.00;;;;;;4197687;28;20084;-42
2021/03/20 02:03:10;;;;;;;0.00;0.00;;;16.50;55.90;;;;;;4197585;28;20040;-42
2021/03/20 02:05:32;;;;;;;0.00;0.00;;;16.50;55.80;;;;;;4197847;28;20052;-43
2021/03/20 02:07:55;;;;;;;0.00;0.00;;;16.40;55.90;;;;;;4197422;28;20056;-45
2021/03/20 02:10:16;;;;;;;0.00;0.00;;;16.40;56.10;;;;;;4197394;28;20063;-43
2021/03/20 02:12:40;;;;;;;0.00;0.00;;;16.30;56.30;;;;;;4197790;28;20059;-42
2021/03/20 02:15:11;;;;;;;0.00;0.00;;;16.50;56.00;;;;;;4197857;28;20045;-51
2021/03/20 02:17:44;;;;;;;0.20;0.20;;;16.50;55.70;;;;;;4197722;28;20153;-50
2021/03/20 02:20:38;;;;;;;0.00;0.00;;;16.60;55.60;;;;;;4197263;28;20044;-43
2021/03/20 02:23:39;;;;;;;0.00;0.00;;;16.50;55.70;;;;;;4181360;28;20487;-41
2021/03/20 02:26:31;;;;;;;0.00;0.00;;;16.60;55.70;;;;;;4188473;28;20134;-42
2021/03/20 02:29:21;;;;;;;0.00;0.00;;;16.60;55.60;;;;;;4181025;28;20499;-43
2021/03/20 02:31:56;;;;;;;0.65;0.65;;;16.60;55.50;;;;;;4179281;28;20063;-43
2021/03/20 02:34:27;;;;;;;0.10;0.10;;;16.50;55.60;;;;;;4180738;28;20441;-43
2021/03/20 02:36:56;;;;;;;0.55;0.55;;;16.50;55.70;;;;;;4181079;28;20077;-43
2021/03/20 02:39:24;;;;;;;0.43;0.43;;;16.50;55.70;;;;;;4180793;28;20071;-44
2021/03/20 02:41:50;;;;;;;0.20;0.20;;;16.50;55.80;;;;;;4194849;28;20056;-43
2021/03/20 02:44:18;;;;;;;0.00;0.00;;;16.40;55.90;;;;;;4197112;28;20060;-42
2021/03/20 02:46:43;;;;;;;0.00;0.00;;;16.30;56.10;;;;;;4197031;28;20059;-43
2021/03/20 02:49:13;;;;;;;0.43;0.43;;;16.40;55.90;;;;;;4180704;28;20540;-44
2021/03/20 02:51:42;;;;;;;0.40;0.40;;;16.50;55.70;;;;;;4180892;28;20061;-43
2021/03/20 02:54:07;;;;;;;0.17;0.05;;;16.50;55.60;;;;;;4180539;28;20045;-43
2021/03/20 02:56:34;;;;;;;0.03;0.03;;;16.50;55.70;;;;;;4192459;28;20052;-43
2021/03/20 02:59:00;;;;;;;0.00;0.00;;;16.40;55.80;;;;;;4180658;28;20063;-43
2021/03/20 03:01:24;;;;;;;0.20;0.20;;;16.50;55.90;;;;;;4180360;28;20137;-43
2021/03/20 03:03:48;;;;;;;0.00;0.00;;;16.50;55.60;;;;;;4180542;28;20147;-43
2021/03/20 03:06:17;;;;;;;0.00;0.00;;;16.60;55.30;;;;;;4192835;28;20048;-45
2021/03/20 03:08:43;;;;;;;0.30;0.30;;;16.60;55.30;;;;;;4196615;28;20135;-42
2021/03/20 03:11:07;;;;;;;0.45;0.45;;;16.50;56.20;;;;;;4196542;28;20084;-44
2021/03/20 03:13:30;;;;;;;0.47;0.47;;;16.40;55.70;;;;;;4196775;28;20075;-43
2021/03/20 03:15:57;;;;;;;0.00;0.00;;;16.30;56.00;;;;;;4196781;28;20816;-42
2021/03/20 03:18:24;;;;;;;0.00;0.00;;;16.30;56.10;;;;;;4180286;28;20098;-43
2021/03/20 03:20:47;;;;;;;0.10;0.10;;;16.40;56.00;;;;;;4188986;28;20106;-45
2021/03/20 03:23:12;;;;;;;0.00;0.00;;;16.50;55.70;;;;;;4196694;28;20055;-43
2021/03/20 03:25:36;;;;;;;1.50;1.40;;;16.60;55.50;;;;;;4196297;28;20410;-43
2021/03/20 03:28:02;;;;;;;0.00;0.00;;;16.50;55.40;;;;;;4196249;28;20050;-44
2021/03/20 03:30:26;;;;;;;0.00;0.00;;;16.50;55.60;;;;;;4196511;28;20129;-43
2021/03/20 03:32:51;;;;;;;0.00;0.00;;;16.40;55.80;;;;;;4196002;28;20095;-43
2021/03/20 03:35:17;;;;;;;0.00;0.00;;;16.40;55.90;;;;;;4196381;28;20063;-44
2021/03/20 03:37:43;;;;;;;0.00;0.00;;;16.30;56.00;;;;;;4196219;28;20495;-43
2021/03/20 03:40:09;;;;;;;0.00;0.00;;;16.20;56.10;;;;;;4196183;28;20052;-44
2021/03/20 03:42:31;;;;;;;0.00;0.00;;;16.10;56.50;;;;;;4196003;28;20052;-45
2021/03/20 03:44:54;;;;;;;0.00;0.00;;;16.00;56.70;;;;;;4196011;28;20131;-43
2021/03/20 03:47:16;;;;;;;0.10;0.10;;;15.90;56.90;;;;;;4196172;28;20048;-43
2021/03/20 03:49:38;;;;;;;0.00;0.00;;;15.80;57.10;;;;;;4195254;28;20110;-43
2021/03/20 03:51:59;;;;;;;0.00;0.00;;;15.80;57.20;;;;;;4196038;28;20056;-42
2021/03/20 03:54:20;;;;;;;0.00;0.00;;;16.00;56.90;;;;;;4196172;28;20495;-43
2021/03/20 03:56:55;;;;;;;0.30;0.20;;;16.20;56.40;;;;;;4195814;28;20056;-44
2021/03/20 03:59:19;;;;;;;0.10;0.10;;;16.40;55.80;;;;;;4179632;28;20123;-51
2021/03/20 04:01:51;;;;;;;0.35;0.35;;;16.50;55.40;;;;;;4179783;28;20110;-43
2021/03/20 04:04:23;;;;;;;0.00;0.00;;;16.50;55.20;;;;;;4196070;28;20059;-47
2021/03/20 04:07:00;;;;;;;0.10;0.10;;;16.50;55.30;;;;;;4194592;28;20142;-48
2021/03/20 04:09:39;;;;;;;0.00;0.00;;;16.40;55.50;;;;;;4195772;28;20074;-46
2021/03/20 04:12:09;;;;;;;0.00;0.00;;;16.40;55.70;;;;;;4195693;28;20158;-43
2021/03/20 04:14:37;;;;;;;2.90;0.52;;;16.40;55.60;;;;;;4195907;28;20049;-44
2021/03/20 04:17:07;;;;;;;0.00;0.00;;;16.50;55.40;;;;;;4195639;28;20063;-43
2021/03/20 04:19:39;;;;;;;0.00;0.00;;;16.50;55.20;;;;;;4195876;28;20113;-43
2021/03/20 04:22:06;;;;;;;0.00;0.00;;;16.60;55.30;;;;;;4195889;28;20052;-45
2021/03/20 04:24:37;;;;;;;0.10;0.10;;;16.50;55.20;;;;;;4194719;28;20056;-42
2021/03/20 04:27:05;;;;;;;0.00;0.00;;;16.60;55.10;;;;;;4191204;28;20056;-43
2021/03/20 04:29:34;;;;;;;0.50;0.50;;;16.60;55.00;;;;;;4195777;28;20135;-44
2021/03/20 04:32:02;;;;;;;0.10;0.10;;;16.60;55.00;;;;;;4194469;28;20056;-43
2021/03/20 04:34:28;;;;;;;0.00;0.00;;;16.60;55.10;;;;;;4195664;28;20250;-43
2021/03/20 04:36:54;;;;;;;0.10;0.10;;;16.70;55.00;;;;;;4195335;28;20067;-45
2021/03/20 04:39:19;;;;;;;0.00;0.00;;;16.70;54.90;;;;;;4195701;28;20098;-43
2021/03/20 04:41:45;;;;;;;0.00;0.00;;;16.70;54.80;;;;;;4191989;28;20055;-44
2021/03/20 04:44:07;;;;;;;0.00;0.00;;;16.80;54.70;;;;;;4195438;28;20110;-43
2021/03/20 04:46:38;;;;;;;0.00;0.00;;;16.90;54.30;;;;;;4195290;28;20053;-43
2021/03/20 04:49:08;;;;;;;0.00;0.00;;;16.90;54.10;;;;;;4195592;28;20197;-43
2021/03/20 04:51:35;;;;;;;0.00;0.00;;;16.90;55.00;;;;;;4195556;28;20057;-43
2021/03/20 04:54:04;;;;;;;0.00;0.00;;;16.80;54.50;;;;;;4195534;28;20052;-43
2021/03/20 04:56:25;;;;;;;0.10;0.10;;;16.70;54.70;;;;;;4192503;28;20126;-44
2021/03/20 04:58:50;;;;;;;0.00;0.00;;;16.60;55.00;;;;;;4199105;28;20057;-43
2021/03/20 05:01:18;;;;;;;0.00;0.00;;;16.60;55.10;;;;;;4198808;28;20056;-43
2021/03/20 05:03:43;;;;;;;0.00;0.00;;;16.60;55.00;;;;;;4199013;28;20063;-46
2021/03/20 05:06:07;;;;;;;0.00;0.00;;;16.60;55.00;;;;;;4198456;28;20772;-43
2021/03/20 05:08:32;;;;;;;0.00;0.00;;;16.60;55.10;;;;;;4198908;28;20540;-43
2021/03/20 05:10:57;;;;;;;0.00;0.00;;;16.50;55.10;;;;;;4183994;28;20517;-43
2021/03/20 05:13:31;;;;;;;0.03;0.03;;;16.50;55.20;;;;;;4198709;28;20563;-43
2021/03/20 05:16:03;;;;;;;0.08;0.08;;;16.50;55.20;;;;;;4198420;28;20152;-43
2021/03/20 05:18:24;;;;;;;10.25;1.58;;;16.40;55.40;;;;;;4198358;28;20119;-42
2021/03/20 05:20:45;;;;;;;0.00;0.00;;;16.30;55.60;;;;;;4198585;28;20052;-43
2021/03/20 05:23:06;;;;;;;0.00;0.00;;;16.30;55.80;;;;;;4198407;28;20045;-43
2021/03/20 05:25:27;;;;;;;0.00;0.00;;;16.30;55.70;;;;;;4197931;28;20459;-43
2021/03/20 05:27:48;;;;;;;0.40;0.40;;;16.40;55.50;;;;;;4198475;28;20651;-45
2021/03/20 05:30:12;;;;;;;0.00;0.00;;;16.50;55.40;;;;;;4198467;28;20143;-43
2021/03/20 05:32:34;;;;;;;0.10;0.10;;;16.50;55.20;;;;;;4198238;28;20084;-43
2021/03/20 05:34:57;;;;;;;0.00;0.00;;;16.50;55.20;;;;;;4210942;28;20087;-44
2021/03/20 05:37:23;;;;;;;0.00;0.00;;;16.50;55.20;;;;;;4198032;28;20056;-42
2021/03/20 05:39:44;;;;;;;0.00;0.00;;;16.50;55.80;;;;;;4190670;28;20056;-43
2021/03/20 05:42:22;;;;;;;0.00;0.00;;;16.60;54.80;;;;;;4198309;28;20052;-44
2021/03/20 05:44:54;;;;;;;0.00;0.00;;;16.80;54.50;;;;;;4198038;28;20049;-47
2021/03/20 05:47:28;;;;;;;0.00;0.00;;;16.80;54.40;;;;;;4198192;28;20460;-52
2021/03/20 05:50:00;;;;;;;0.08;0.08;;;16.80;54.30;;;;;;4198376;28;20146;-44
2021/03/20 05:52:43;;;;;;;0.00;0.00;;;16.70;54.40;;;;;;4197813;28;20071;-43
2021/03/20 05:55:22;;;;;;;0.00;0.00;;;16.60;54.70;;;;;;4197909;28;20524;-43
2021/03/20 05:57:50;;;;;;;0.10;0.10;;;16.50;55.00;;;;;;4196940;28;20098;-45
2021/03/20 06:00:18;;;;;;;0.00;0.00;;;16.50;55.30;;;;;;4198037;28;20056;-43
2021/03/20 06:02:54;;;;;;;0.00;0.00;;;16.40;55.30;;;;;;4198065;28;20514;-45
2021/03/20 06:05:30;;;;;;;6.13;1.95;;;16.40;55.40;;;;;;4181463;28;20073;-48
2021/03/20 06:08:04;;;;;;;0.22;0.22;;;16.30;55.70;;;;;;4190305;28;20076;-44
2021/03/20 06:10:45;;;;;;;0.40;0.40;;;16.20;55.90;;;;;;4197527;28;20758;-43
2021/03/20 06:13:40;;;;;;;0.00;0.00;;;16.20;56.00;;;;;;4197547;28;20558;-46
2021/03/20 06:16:17;;;;;;;0.10;0.10;;;16.10;56.10;;;;;;4197736;28;20063;-45
2021/03/20 06:19:23;;;;;;;0.30;0.30;;;16.00;56.40;;;;;;4197583;28;20052;-44
2021/03/20 06:22:03;;;;;;;0.30;0.30;;;16.10;56.30;;;;;;4171823;28;20142;-43
2021/03/20 06:24:55;;;;;;;0.98;0.90;;;16.20;56.00;;;;;;4194346;28;20556;-50
2021/03/20 06:27:19;;;;;;;0.00;0.00;;;16.20;56.00;;;;;;4197236;28;20055;-44
2021/03/20 06:29:52;;;;;;;1.35;0.40;;;16.10;56.00;;;;;;4197572;28;20053;-42
2021/03/20 06:32:20;;;;;;;0.00;0.00;;;16.10;56.20;;;;;;4197348;28;20499;-43
2021/03/20 06:34:50;;;;;;;0.00;0.00;;;16.10;56.50;;;;;;4181211;28;20059;-43
2021/03/20 06:37:18;;;;;;;0.00;0.00;;;16.10;56.70;;;;;;4197426;28;20098;-43
2021/03/20 06:39:45;;;;;;;0.00;0.00;;;16.00;56.80;;;;;;4197299;28;20080;-43
2021/03/20 06:42:13;;;;;;;0.00;0.00;;;16.00;56.80;;;;;;4197221;28;20056;-43
2021/03/20 06:44:38;;;;;;;0.00;0.00;;;16.00;56.70;;;;;;4180840;28;20076;-43
2021/03/20 06:47:00;;;;;;;0.00;0.00;;;16.00;56.80;;;;;;4180649;28;20049;-43
2021/03/20 06:49:29;;;;;;;0.00;0.00;;;15.90;56.90;;;;;;4180685;28;20427;-45
2021/03/20 06:51:50;;;;;;;0.20;0.20;;;15.90;57.00;;;;;;4184489;28;20056;-42
2021/03/20 06:54:12;;;;;;;;;;;15.80;57.30;;;;;;4197173;28;20461;-42
2021/03/20 06:56:37;;;;;;;2.63;1.65;;;15.70;57.60;;;;;;4196763;28;19920;-43
2021/03/20 06:58:58;;;;;;;0.00;0.00;;;15.60;57.70;;;;;;4180535;28;20041;-43
2021/03/20 07:01:32;;;;;;;0.00;0.00;;;15.50;58.60;;;;;;4180365;28;20049;-43
2021/03/20 07:04:25;;;;;;;0.00;0.00;;;15.40;58.10;;;;;;4194573;28;20106;-45
2021/03/20 07:07:09;;;;;;;0.10;0.10;;;15.30;58.30;;;;;;4196813;28;20075;-43
2021/03/20 07:09:39;;;;;;;0.00;0.00;;;15.20;58.50;;;;;;4196558;28;20569;-43
2021/03/20 07:12:07;;;;;;;0.00;0.00;;;15.10;58.60;;;;;;4196673;28;20059;-43
2021/03/20 07:14:40;;;;;;;0.00;0.00;;;15.10;58.80;;;;;;4196875;28;20475;-43
2021/03/20 07:17:02;;;;;;;;;;;15.00;59.00;;;;;;4197066;28;20127;-44
2021/03/20 07:19:23;;;;;;;0.00;0.00;;;14.90;59.10;;;;;;4196343;28;20420;-43
2021/03/20 07:21:45;;;;;;;0.10;0.10;;;14.90;59.20;;;;;;4196704;28;20121;-43
2021/03/20 07:24:13;;;;;;;0.00;0.00;;;14.90;59.40;;;;;;4188801;28;20052;-43
2021/03/20 07:26:49;;;;;;;0.20;0.20;;;14.80;59.40;;;;;;4196470;28;20507;-43
2021/03/20 07:29:11;;;;;;;0.00;0.00;;;14.80;59.50;;;;;;4196550;28;20477;-51
2021/03/20 07:31:32;;;;;;;0.00;0.00;;;14.70;59.60;;;;;;4195941;28;20052;-48
2021/03/20 07:33:55;;;;;;;0.00;0.00;;;14.70;59.60;;;;;;4196229;28;20438;-43
2021/03/20 07:36:31;;;;;;;0.00;0.00;;;14.60;59.60;;;;;;4196544;28;20772;-43
2021/03/20 07:39:09;;;;;;;0.00;0.00;;;14.60;59.50;;;;;;4196171;28;20056;-42
2021/03/20 07:41:44;;;;;;;0.00;0.00;;;14.60;59.50;;;;;;4196128;28;20131;-43
2021/03/20 07:44:08;;;;;;;0.00;0.00;;;14.50;59.30;;;;;;4195924;28;20053;-42
2021/03/20 07:46:34;;;;;;;0.10;0.10;;;14.50;59.20;;;;;;4195187;28;20052;-43
2021/03/20 07:49:00;;;;;;;0.00;0.00;;;14.40;58.90;;;;;;4195045;28;20052;-44
2021/03/20 07:51:21;;;;;;;0.95;0.95;;;14.40;58.50;;;;;;4195863;28;20048;-42
2021/03/20 07:53:45;;;;;;;0.00;0.00;;;14.40;58.30;;;;;;4195859;28;20056;-42
2021/03/20 07:56:24;;;;;;;0.22;0.22;;;14.30;58.30;;;;;;4193500;28;20426;-42
2021/03/20 07:58:47;;;;;;;0.00;0.00;;;14.30;58.30;;;;;;4196015;28;20481;-43
2021/03/20 08:01:14;;;;;;;2.90;0.80;;;14.30;58.10;;;;;;4195065;28;20059;-43
2021/03/20 08:03:50;;;;;;;0.00;0.00;;;14.30;57.90;;;;;;4196133;28;20498;-42
2021/03/20 08:06:14;;;;;;;0.00;0.00;;;14.30;57.70;;;;;;4194951;28;20075;-43
2021/03/20 08:08:35;;;;;;;0.00;0.00;;;14.30;57.60;;;;;;4195300;28;20237;-43
2021/03/20 08:10:58;;;;;;;0.08;0.08;;;14.30;57.40;;;;;;4193891;28;20087;-42
2021/03/20 08:13:40;;;;;;;0.00;0.00;;;14.30;57.00;;;;;;4195536;28;20049;-42
2021/03/20 08:16:01;;;;;;;0.00;0.00;;;14.30;56.80;;;;;;4195773;28;20052;-42
2021/03/20 08:18:24;;;;;;;0.15;0.15;;;14.20;56.50;;;;;;4195877;28;20052;-42
2021/03/20 08:21:21;;;;;;;0.00;0.00;;;14.20;56.50;;;;;;4194979;28;20079;-42
2021/03/20 08:23:56;;;;;;;0.43;0.15;;;14.20;56.40;;;;;;4188189;28;20052;-42
2021/03/20 08:26:25;;;;;;;1.25;0.95;;;14.10;56.50;;;;;;4195418;28;20048;-44
2021/03/20 08:28:50;;;;;;;0.00;0.00;;;14.10;56.50;;;;;;4192068;28;20045;-42
2021/03/20 08:31:28;;;;;;;0.25;0.25;;;14.00;56.40;;;;;;4178592;28;20055;-46
2021/03/20 08:34:08;;;;;;;0.00;0.00;;;14.00;56.10;;;;;;4179218;28;20085;-42
2021/03/20 08:36:50;;;;;;;0.00;0.00;;;14.00;56.20;;;;;;4178994;28;20053;-42
2021/03/20 08:39:23;;;;;;;0.00;0.00;;;13.90;56.10;;;;;;4186666;28;20153;-42
2021/03/20 08:41:54;;;;;;;0.10;0.10;;;13.90;56.20;;;;;;4195493;28;20048;-42
2021/03/20 08:44:42;;;;;;;0.28;0.28;;;13.90;56.30;;;;;;4195637;28;20059;-42
2021/03/20 08:47:32;;;;;;;0.00;0.00;;;13.90;56.30;;;;;;4195846;28;20469;-42
2021/03/20 08:50:07;;;;;;;0.00;0.00;;;13.90;56.50;;;;;;4195462;28;20040;-42
2021/03/20 08:52:39;;;;;;;3.33;1.45;;;13.80;56.30;;;;;;4195650;28;20426;-43
2021/03/20 08:55:16;;;;;;;0.13;0.13;;;13.90;56.10;;;;;;4195723;28;20098;-42
2021/03/20 08:57:45;;;;;;;0.10;0.10;;;13.80;55.90;;;;;;4195657;28;20098;-43
2021/03/20 09:00:17;;;;;;;3.20;1.73;;;13.80;55.80;;;;;;4195470;28;20433;-41
2021/03/20 09:02:40;;;;;;;0.00;0.00;;;13.80;55.70;;;;;;4195493;28;20064;-42
2021/03/20 09:05:11;;;;;;;0.30;0.30;;;13.70;55.70;;;;;;4195574;28;20058;-42
2021/03/20 09:07:38;;;;;;;0.00;0.00;;;13.70;55.60;;;;;;4195771;28;20466;-42
2021/03/20 09:10:03;;;;;;;0.10;0.10;;;13.80;55.70;;;;;;4178915;28;20063;-42
2021/03/20 09:12:32;;;;;;;0.00;0.00;;;13.70;55.60;;;;;;4178881;28;20154;-47
2021/03/20 09:14:53;;;;;;;0.35;0.35;;;13.70;55.60;;;;;;4179036;28;20056;-47
2021/03/20 09:17:18;;;;;;;0.35;0.35;;;13.70;55.60;;;;;;4178998;28;20053;-42
2021/03/20 09:19:47;;;;;;;2.30;1.30;;;13.70;55.50;;;;;;4192520;28;20769;-42
2021/03/20 09:22:11;;;;;;;0.00;0.00;;;13.70;55.40;;;;;;4195448;28;20151;-42
2021/03/20 09:24:34;;;;;;;0.00;0.00;;;13.70;55.60;;;;;;4195363;28;20048;-43
2021/03/20 09:26:57;;;;;;;0.60;0.60;;;13.70;55.60;;;;;;4195478;28;20186;-43
2021/03/20 09:29:20;;;;;;;0.00;0.00;;;13.60;55.30;;;;;;4195362;28;20045;-43
2021/03/20 09:32:04;;;;;;;0.00;0.00;;;13.60;56.10;;;;;;4193882;28;20048;-42
2021/03/20 09:34:35;;;;;;;0.00;0.00;;;13.60;55.40;;;;;;4195240;28;20059;-42
2021/03/20 09:36:56;;;;;;;0.00;0.00;;;13.60;55.50;;;;;;4195425;28;20411;-43
2021/03/20 09:39:37;;;;;;;0.00;0.00;;;13.60;55.50;;;;;;4195306;28;20133;-42
2021/03/20 09:41:57;;;;;;;0.00;0.00;;;13.60;55.50;;;;;;4195804;28;20056;-43
2021/03/20 09:44:25;;;;;;;0.95;0.95;;;13.60;55.50;;;;;;4197712;28;20490;-45
2021/03/20 09:46:51;;;;;;;0.00;0.00;;;13.60;55.50;;;;;;4198362;28;20060;-43
2021/03/20 09:49:59;;;;;;;0.15;0.15;;;13.60;55.40;;;;;;4198138;28;20798;-42
2021/03/20 09:52:51;;;;;;;0.10;0.10;;;13.60;55.30;;;;;;4197977;28;20126;-46
2021/03/20 09:55:48;;;;;;;0.00;0.00;;;13.60;55.30;;;;;;4181754;28;20140;-43
2021/03/20 09:58:39;;;;;;;0.00;0.00;;;13.60;55.60;;;;;;4181804;28;20396;-43
2021/03/20 10:01:17;;;;;;;0.90;0.45;;;13.60;55.60;;;;;;4181623;28;20052;-44
2021/03/20 10:03:45;;;;;;;0.32;0.32;;;13.60;55.50;;;;;;4181525;28;20175;-46
2021/03/20 10:06:35;;;;;;;0.00;0.00;;;13.60;55.50;;;;;;4181536;28;20049;-44
2021/03/20 10:09:22;;;;;;;0.00;0.00;;;13.60;55.70;;;;;;4179026;28;20057;-42
2021/03/20 10:12:16;;;;;;;0.10;0.10;;;13.60;55.60;;;;;;4197881;28;20055;-49
2021/03/20 10:15:03;;;;;;;0.28;0.28;;;13.60;55.70;;;;;;4198027;28;20059;-44
2021/03/20 10:17:27;;;;;;;0.08;0.08;;;13.60;55.80;;;;;;4197877;28;20064;-44
2021/03/20 10:19:51;;;;;;;0.43;0.43;;;13.60;55.90;;;;;;4197844;28;20063;-47
2021/03/20 10:22:23;;;;;;;0.52;0.32;;;13.60;55.90;;;;;;4196926;28;20053;-46
2021/03/20 10:24:50;;;;;;;0.00;0.00;;;13.60;55.80;;;;;;4197678;28;20052;-43
2021/03/20 10:27:21;;;;;;;0.00;0.00;;;13.60;55.80;;;;;;4197848;28;20503;-43
2021/03/20 10:29:43;;;;;;;0.10;0.10;;;13.60;55.80;;;;;;4197828;28;20076;-43
2021/03/20 10:32:16;;;;;;;0.00;0.00;;;13.50;55.90;;;;;;4197389;28;20060;-42
2021/03/20 10:34:47;;;;;;;0.38;0.38;;;13.50;56.00;;;;;;4197761;28;20048;-42
2021/03/20 10:37:10;;;;;;;0.00;0.00;;;13.50;56.00;;;;;;4197391;28;20059;-43
2021/03/20 10:39:34;;;;;;;0.52;0.50;;;13.50;56.00;;;;;;4197523;28;20102;-42
2021/03/20 10:42:01;;;;;;;0.00;0.00;;;13.50;56.00;;;;;;4197545;28;20049;-46
2021/03/20 10:44:25;;;;;;;0.95;0.95;;;13.50;56.00;;;;;;4197137;28;20110;-46
2021/03/20 10:46:48;;;;;;;0.25;0.25;;;13.50;56.10;;;;;;4191378;28;20052;-49
2021/03/20 10:49:18;;;;;;;0.22;0.15;;;13.50;56.20;;;;;;4197578;28;20135;-53
2021/03/20 10:51:41;;;;;;;1.08;0.47;;;13.50;56.40;;;;;;4197457;28;20060;-43
2021/03/20 10:54:11;;;;;;;0.25;0.25;;;13.50;56.40;;;;;;4196139;28;20056;-43
2021/03/20 10:56:34;;;;;;;0.75;0.75;;;13.50;56.40;;;;;;4197294;28;20056;-46
2021/03/20 10:58:55;;;;;;;0.65;0.65;;;13.50;56.50;;;;;;4197291;28;20056;-42
2021/03/20 11:01:29;;;;;;;0.20;0.20;;;13.50;56.60;;;;;;4197100;28;20048;-42
2021/03/20 11:03:51;;;;;;;0.00;0.00;;;13.50;56.60;;;;;;4195400;28;20113;-42
2021/03/20 11:06:15;;;;;;;0.00;0.00;;;13.50;56.60;;;;;;4196204;28;20048;-43
2021/03/20 11:08:37;;;;;;;0.00;0.00;;;13.40;56.60;;;;;;4196667;28;20052;-42
2021/03/20 11:11:14;;;;;;;0.20;0.20;;;13.50;56.70;;;;;;4196648;28;20058;-44
2021/03/20 11:13:38;;;;;;;3.03;1.30;;;13.60;56.90;;;;;;4196418;28;20083;-43
2021/03/20 11:16:08;;;;;;;0.45;0.32;;;14.20;55.90;;;;;;4196661;28;20110;-43
2021/03/20 11:18:36;;;;;;;1.35;1.25;;;15.10;53.90;;;;;;4195413;28;21341;-43
2021/03/20 11:20:58;;;;;;;0.00;0.00;;;16.00;52.00;;;;;;4194041;28;20059;-42
2021/03/20 11:23:29;;;;;;;0.88;0.88;;;16.90;49.90;;;;;;4192926;28;20052;-44
2021/03/20 11:25:50;;;;;;;0.32;0.32;;;17.80;47.70;;;;;;4180131;28;20099;-45
2021/03/20 11:28:14;;;;;;;0.38;0.38;;;18.70;45.60;;;;;;4192577;28;20076;-43
2021/03/20 11:30:42;;;;;;;0.00;0.00;;;19.40;43.80;;;;;;4196173;28;20059;-43
2021/03/20 11:33:05;;;;;;;0.30;0.30;;;19.90;42.80;;;;;;4196490;28;20067;-43
2021/03/20 11:35:27;;;;;;;0.22;0.22;;;20.00;42.40;;;;;;4196018;28;20114;-42
2021/03/20 11:37:49;;;;;;;0.05;0.05;;;20.10;42.30;;;;;;4196475;28;20059;-43
2021/03/20 11:40:25;;;;;;;1.13;0.77;;;19.80;42.70;;;;;;4194416;28;20542;-43
2021/03/20 11:42:46;;;;;;;0.73;0.73;;;19.50;43.50;;;;;;4196308;28;20040;-43
2021/03/20 11:45:15;;;;;;;;;;;19.20;44.10;;;;;;4196110;28;20045;-43
2021/03/20 11:47:38;;;;;;;0.52;0.52;;;19.00;44.80;;;;;;4195891;28;19931;-43
2021/03/20 11:50:04;;;;;;;0.15;0.15;;;18.70;45.50;;;;;;4195774;28;20044;-43
2021/03/20 11:52:28;;;;;;;0.68;0.68;;;18.40;46.00;;;;;;4195389;28;20568;-43
2021/03/20 11:55:03;;;;;;;0.28;0.28;;;18.20;46.60;;;;;;4195446;28;20057;-43
2021/03/20 11:57:30;;;;;;;0.73;0.73;;;17.90;47.10;;;;;;4195683;28;20040;-43
2021/03/20 11:59:52;;;;;;;0.13;0.13;;;17.70;47.50;;;;;;4195512;28;20068;-42
2021/03/20 12:02:35;;;;;;;0.20;0.20;;;17.50;47.80;;;;;;4196053;28;20056;-43
2021/03/20 12:05:19;;;;;;;0.25;0.25;;;17.50;48.10;;;;;;4195712;28;20048;-43
2021/03/20 12:07:41;;;;;;;0.00;0.00;;;17.40;48.30;;;;;;4195867;28;20052;-44
2021/03/20 12:10:15;;;;;;;0.30;0.30;;;17.30;48.20;;;;;;4195810;28;20053;-42
2021/03/20 12:12:50;;;;;;;0.52;0.32;;;17.20;48.50;;;;;;4195526;28;20060;-42
2021/03/20 12:15:29;;;;;;;0.82;0.80;;;17.30;49.20;;;;;;4194908;28;20530;-44
2021/03/20 12:17:51;;;;;;;0.38;0.38;;;17.30;48.80;;;;;;4195462;28;20056;-43
2021/03/20 12:20:29;;;;;;;0.17;0.17;;;17.30;48.60;;;;;;4195495;28;20548;-44
2021/03/20 12:22:55;;;;;;;1.70;1.60;;;17.30;48.40;;;;;;4195787;28;20543;-43
2021/03/20 12:25:29;;;;;;;0.13;0.13;;;17.20;48.70;;;;;;4195673;28;20052;-43
2021/03/20 12:27:52;;;;;;;0.00;0.00;;;17.00;49.00;;;;;;4194964;28;20713;-43
2021/03/20 12:30:27;;;;;;;0.30;0.30;;;17.00;49.40;;;;;;4195596;28;20055;-43
2021/03/20 12:32:48;;;;;;;0.17;0.17;;;16.90;49.40;;;;;;4195516;28;20056;-43
2021/03/20 12:35:28;;;;;;;0.10;0.10;;;16.80;49.50;;;;;;4185564;28;20406;-43
2021/03/20 12:38:03;;;;;;;0.00;0.00;;;16.90;49.40;;;;;;4194196;28;20076;-46
2021/03/20 12:40:24;;;;;;;0.10;0.10;;;17.10;49.00;;;;;;4194893;28;20059;-45
2021/03/20 12:42:47;;;;;;;1.08;1.08;;;17.10;49.70;;;;;;4195263;28;20476;-44
2021/03/20 12:45:10;;;;;;;1.15;1.15;;;17.20;48.90;;;;;;4195289;28;20065;-45
2021/03/20 12:47:31;;;;;;;0.50;0.50;;;17.20;48.80;;;;;;4191491;28;20048;-43
2021/03/20 12:49:52;;;;;;;0.30;0.30;;;17.30;48.90;;;;;;4190194;28;20059;-45
2021/03/20 12:52:16;;;;;;;0.38;0.38;;;17.40;48.70;;;;;;4195110;28;20045;-43
2021/03/20 12:54:42;;;;;;;1.77;1.35;;;17.40;48.80;;;;;;4195678;28;20067;-45